Latest Weather Observations for Roma

IDQ60801

Issued at 5:42 pm EST Sunday 15 September 2019 (issued every 10 minutes, with the page automatically refreshed every 10 minutes)

About weather observations | Map of weather stations | Latest weather observations for QLD | Other Formats
Station Details ID: 043091 Name: ROMA AIRPORT Lat: -26.55 Lon: 148.77 Height: 307.38 m
Data from the previous 72 hours. | See also: Recent months at Roma
Date/Time
EST
Temp
°C
App
Temp
°C
Dew
Point
°C
Rel
Hum
%
Delta-T
°C
Wind Press
QNH
hPa
Press
MSL
hPa
Rain since
9am
mm
Dir  Spd
km/h
Gust
km/h
Spd
kts
Gust
kts
15/05:30pm 28.6 24.1 -12.4 6 15.8 SW 7 11 4 6 1020.3 1019.6 0.0
15/05:00pm 29.0 24.7 -12.2 6 16.0 S 6 9 3 5 1020.1 1019.4 0.0
15/04:30pm 29.3 25.0 -11.9 6 16.1 SE 6 9 3 5 1020.0 1019.3 0.0
15/04:00pm 30.0 25.1 -11.4 6 16.4 NE 9 17 5 9 1019.8 1019.1 0.0
15/03:30pm 30.2 25.7 -11.3 6 16.6 NNE 7 11 4 6 1019.7 1019.0 0.0
15/03:00pm 30.4 25.0 -13.4 5 16.9 NW 11 20 6 11 1019.6 1018.9 0.0
15/02:30pm 30.0 25.1 -11.4 6 16.5 N 9 15 5 8 1019.9 1019.2 0.0
15/02:00pm 29.8 24.5 -11.6 6 16.3 ENE 11 17 6 9 1020.2 1019.5 0.0
15/01:30pm 29.7 25.9 -9.7 7 16.1 SE 4 7 2 4 1020.9 1020.1 0.0
15/01:00pm 29.2 23.9 -12.0 6 16.0 NE 11 17 6 9 1021.5 1020.7 0.0
15/12:30pm 29.1 23.9 -10.2 7 15.8 NNW 11 17 6 9 1022.2 1021.5 0.0
15/12:00pm 28.5 23.1 -8.9 8 15.3 SE 13 20 7 11 1022.9 1022.2 0.0
15/11:30am 27.8 23.1 -9.4 8 15.0 E 9 17 5 9 1023.4 1022.7 0.0
15/11:00am 26.8 21.8 -8.7 9 14.3 SE 11 20 6 11 1023.8 1023.1 0.0
15/10:30am 26.9 22.4 -7.2 10 14.2 N 9 15 5 8 1024.4 1023.6 0.0
15/10:00am 25.5 20.9 -8.3 10 13.5 NNE 9 15 5 8 1024.6 1023.8 0.0
15/09:30am 23.0 18.5 -6.9 13 12.0 N 9 13 5 7 1024.9 1024.2 0.0
15/09:00am 21.2 17.0 -7.3 14 11.1 ENE 7 13 4 7 1024.9 1024.2 0.0
15/08:30am 19.6 15.4 -7.7 15 10.5 ESE 7 11 4 6 1024.8 1024.1 0.0
15/08:00am 16.4 13.4 -8.7 17 9.0 CALM 0 0 0 0 1024.5 1023.7 0.0
15/07:30am 13.0 10.0 -8.8 21 7.5 CALM 0 0 0 0 1024.3 1023.5 0.0
15/07:00am 9.4 6.1 -8.2 28 5.9 WSW 2 6 1 3 1023.7 1023.0 0.0
15/06:59am 9.4 6.1 -8.2 28 5.9 WSW 2 6 1 3 1023.7 1023.0 0.0
15/06:30am 4.4 0.0 -10.1 34 4.3 N 7 7 4 4 1023.3 1022.6 0.0
15/06:00am 4.6 1.5 -10.3 33 4.4 CALM 0 4 0 2 1023.0 1022.3 0.0
15/05:30am 3.9 -0.6 -11.7 31 4.7 N 7 7 4 4 1023.0 1022.3 0.0
15/05:00am 5.2 0.9 -10.9 30 4.7 N 6 7 3 4 1022.7 1022.0 0.0
15/04:30am 5.2 0.8 -10.9 30 4.7 N 7 7 4 4 1022.4 1021.7 0.0
15/04:00am 5.0 0.5 -11.5 29 4.7 N 7 9 4 5 1022.2 1021.5 0.0
15/03:30am 6.0 1.6 -12.5 25 5.3 N 6 6 3 3 1022.2 1021.5 0.0
15/03:00am 6.8 2.6 -10.4 28 5.2 N 6 7 3 4 1022.1 1021.4 0.0
15/02:30am 7.1 2.9 -10.6 27 5.4 N 6 7 3 4 1022.2 1021.5 0.0
15/02:00am 7.0 2.7 -11.2 26 5.4 NNW 6 7 3 4 1022.4 1021.7 0.0
15/01:30am 7.7 3.2 -11.1 25 5.7 N 7 7 4 4 1022.6 1021.9 0.0
15/01:00am 8.5 4.1 -10.9 24 6.0 NNW 7 9 4 5 1022.8 1022.1 0.0
15/12:30am 9.0 5.9 -10.5 24 6.1 CALM 0 0 0 0 1022.7 1022.0 0.0
15/12:00am 11.2 8.1 -10.3 21 7.0 CALM 0 0 0 0 1022.9 1022.2 0.0
 
Date/Time
EST
Temp
°C
App
Temp
°C
Dew
Point
°C
Rel
Hum
%
Delta-T
°C
Wind Press
QNH
hPa
Press
MSL
hPa
Rain since
9am
mm
Dir  Spd
km/h
Gust
km/h
Spd
kts
Gust
kts
14/11:30pm 10.2 6.7 -11.1 21 6.7 NW 2 6 1 3 1022.9 1022.2 0.0
14/11:00pm 10.6 6.1 -11.4 20 6.9 WNW 7 7 4 4 1022.9 1022.2 0.0
14/10:30pm 10.0 6.7 -13.9 17 7.1 CALM 0 0 0 0 1022.9 1022.2 0.0
14/10:00pm 12.3 9.1 -12.0 17 7.7 CALM 0 0 0 0 1022.9 1022.2 0.0
14/09:30pm 15.3 12.2 -11.1 15 8.9 CALM 0 0 0 0 1022.9 1022.2 0.0
14/09:00pm 16.3 13.2 -11.2 14 9.4 CALM 0 0 0 0 1022.9 1022.2 0.0
14/08:30pm 16.4 12.1 -12.0 13 9.6 SSW 6 7 3 4 1022.9 1022.2 0.0
14/08:00pm 16.6 11.7 -11.9 13 9.6 SW 9 11 5 6 1022.8 1022.1 0.0
14/07:30pm 18.2 13.3 -11.6 12 10.4 SSW 9 11 5 6 1022.5 1021.8 0.0
14/07:00pm 19.3 14.4 -11.9 11 10.9 S 9 11 5 6 1022.1 1021.4 0.0
14/06:30pm 20.3 14.6 -12.3 10 11.5 S 13 13 7 7 1021.9 1021.2 0.0
14/06:00pm 23.6 18.3 -12.5 8 13.1 S 11 15 6 8 1021.6 1020.8 0.0
14/05:30pm 26.2 19.8 -12.3 7 14.5 SSE 17 20 9 11 1021.3 1020.5 0.0
14/05:00pm 27.4 20.6 -11.4 7 15.0 SSE 19 24 10 13 1021.1 1020.3 0.0
14/04:30pm 28.0 21.1 -12.9 6 15.5 SSE 19 28 10 15 1021.0 1020.2 0.0
14/04:00pm 28.1 22.4 -12.8 6 15.5 SSE 13 20 7 11 1020.9 1020.1 0.0
14/03:30pm 28.9 23.2 -12.2 6 15.9 S 13 24 7 13 1020.9 1020.1 0.0
14/03:00pm 29.0 23.5 -10.2 7 15.7 SSE 13 24 7 13 1020.9 1020.1 0.0
14/02:30pm 28.8 22.5 -10.4 7 15.7 SW 17 26 9 14 1021.2 1020.4 0.0
14/02:00pm 28.1 22.3 -9.2 8 15.1 S 15 26 8 14 1021.4 1020.6 0.0
14/01:30pm 28.0 22.9 -9.3 8 15.1 SSW 11 20 6 11 1021.8 1021.0 0.0
14/01:00pm 28.5 24.2 -8.9 8 15.3 SSE 7 15 4 8 1022.1 1021.4 0.0
14/12:30pm 27.4 22.8 -8.2 9 14.6 ESE 9 17 5 9 1022.7 1022.0 0.0
14/12:00pm 26.4 21.0 -9.0 9 14.1 SSW 13 22 7 12 1023.3 1022.6 0.0
14/11:30am 26.4 21.3 -9.0 9 14.2 S 11 17 6 9 1023.7 1023.0 0.0
14/11:00am 25.7 20.3 -8.2 10 13.6 SSE 13 20 7 11 1024.1 1023.3 0.0
14/10:30am 25.3 19.9 -8.5 10 13.5 ESE 13 24 7 13 1024.5 1023.7 0.0
14/10:00am 24.5 19.9 -7.9 11 12.9 ENE 9 17 5 9 1024.7 1023.9 0.0
14/09:30am 23.1 18.9 -7.8 12 12.3 N 7 11 4 6 1025.0 1024.3 0.0
14/09:00am 20.7 16.3 -9.7 12 11.3 N 7 11 4 6 1025.1 1024.4 0.0
14/08:30am 18.1 13.8 -8.9 15 9.9 N 7 9 4 5 1025.0 1024.3 0.0
14/08:00am 14.7 11.4 -8.7 19 8.2 N 2 9 1 5 1024.8 1024.1 0.0
14/07:30am 10.7 7.7 -9.0 24 6.6 CALM 0 0 0 0 1024.4 1023.6 0.0
14/07:00am 7.3 4.3 -9.1 30 5.2 CALM 0 0 0 0 1024.3 1023.5 0.0
14/06:30am 3.8 -0.4 -10.2 35 4.3 N 6 7 3 4 1023.8 1023.1 0.0
14/06:00am 3.5 -0.9 -10.9 34 4.3 N 7 9 4 5 1023.4 1022.7 0.0
14/05:30am 4.2 -0.3 -11.0 32 4.7 N 7 9 4 5 1023.1 1022.4 0.0
14/05:00am 4.4 -0.1 -11.2 31 4.8 N 7 9 4 5 1022.8 1022.1 0.0
14/04:30am 4.8 0.3 -11.3 30 4.7 N 7 9 4 5 1022.6 1021.9 0.0
14/04:00am 5.5 2.0 -10.3 31 4.7 NNW 2 9 1 5 1022.4 1021.7 0.0
14/03:30am 6.0 2.9 -10.2 30 4.9 CALM 0 0 0 0 1022.2 1021.5 0.0
14/03:00am 5.4 2.2 -11.6 28 4.9 CALM 0 0 0 0 1022.3 1021.6 0.0
14/02:30am 6.0 2.9 -11.1 28 5.1 CALM 0 0 0 0 1022.4 1021.7 0.0
14/02:00am 6.4 2.2 -10.7 28 5.1 NW 6 7 3 4 1022.6 1021.9 0.0
14/01:30am 6.6 2.1 -12.0 25 5.4 NW 7 7 4 4 1022.8 1022.1 0.0
14/01:00am 8.3 4.0 -11.1 24 5.9 WNW 6 7 3 4 1023.0 1022.3 0.0
14/12:30am 8.1 5.0 -11.2 24 5.9 CALM 0 0 0 0 1023.3 1022.6 0.0
14/12:00am 9.1 5.9 -12.0 21 6.4 CALM 0 0 0 0 1023.3 1022.6 0.0
 
Date/Time
EST
Temp
°C
App
Temp
°C
Dew
Point
°C
Rel
Hum
%
Delta-T
°C
Wind Press
QNH
hPa
Press
MSL
hPa
Rain since
9am
mm
Dir  Spd
km/h
Gust
km/h
Spd
kts
Gust
kts
13/11:30pm 9.4 6.2 -12.4 20 6.6 CALM 0 0 0 0 1023.2 1022.5 0.0
13/11:00pm 9.6 5.7 -11.6 21 6.5 WSW 4 9 2 5 1023.0 1022.3 0.0
13/10:30pm 10.8 7.6 -12.5 18 7.2 CALM 0 0 0 0 1023.1 1022.4 0.0
13/10:00pm 14.2 10.2 -12.0 15 8.5 SSW 4 7 2 4 1022.9 1022.2 0.0
13/09:30pm 14.0 8.3 -13.0 14 8.6 SW 13 17 7 9 1023.0 1022.3 0.0
13/09:00pm 14.3 9.9 -12.8 14 8.7 SW 6 11 3 6 1022.8 1022.1 0.0
13/08:30pm 16.0 10.3 -12.4 13 9.5 SW 13 13 7 7 1022.7 1022.0 0.0
13/08:00pm 16.5 11.2 -13.0 12 9.7 SSW 11 13 6 7 1022.6 1021.9 0.0
13/07:30pm 17.3 11.6 -12.3 12 10.0 SSW 13 13 7 7 1022.5 1021.8 0.0
13/07:00pm 17.4 11.7 -13.3 11 10.2 SW 13 13 7 7 1022.1 1021.4 0.0
13/06:30pm 19.1 13.7 -13.2 10 11.0 SSW 11 11 6 6 1021.7 1020.9 0.0
13/06:00pm 22.3 16.6 -12.1 9 12.4 SSW 13 15 7 8 1021.3 1020.5 0.0
13/05:30pm 26.0 19.6 -12.4 7 14.4 SSW 17 24 9 13 1021.0 1020.2 0.0
13/05:00pm 27.2 20.4 -11.5 7 14.9 SSW 19 30 10 16 1020.7 1019.9 0.0
13/04:30pm 27.9 21.0 -11.0 7 15.3 SSW 20 32 11 17 1020.6 1019.8 0.0
13/04:00pm 28.1 21.2 -10.9 7 15.3 SSW 20 26 11 14 1020.4 1019.7 0.0
13/03:30pm 28.5 21.2 -10.6 7 15.5 S 22 33 12 18 1020.4 1019.7 0.0
13/03:00pm 28.2 21.4 -9.1 8 15.1 SSE 20 32 11 17 1020.6 1019.8 0.0
13/02:30pm 28.6 22.0 -8.8 8 15.4 SSW 19 28 10 15 1020.7 1019.9 0.0
13/02:00pm 28.3 21.1 -9.1 8 15.2 S 22 35 12 19 1020.9 1020.1 0.0
13/01:30pm 27.4 20.3 -8.2 9 14.6 S 22 30 12 16 1021.5 1020.7 0.0
13/01:00pm 28.3 21.6 -7.6 9 15.0 SSW 20 41 11 22 1021.9 1021.2 0.0
13/12:30pm 27.8 20.7 -7.9 9 14.8 S 22 32 12 17 1022.3 1021.6 0.0
13/12:00pm 27.6 20.5 -8.1 9 14.6 SW 22 33 12 18 1022.7 1022.0 0.0
13/11:30am 27.2 20.1 -8.4 9 14.5 S 22 28 12 15 1023.1 1022.4 0.0
13/11:00am 26.2 19.4 -9.1 9 14.0 S 20 33 11 18 1023.5 1022.8 0.0
13/10:30am 26.0 20.1 -9.3 9 14.0 SSW 15 24 8 13 1023.7 1023.0 0.0
13/10:00am 25.1 20.2 -7.4 11 13.2 SW 11 24 6 13 1024.2 1023.4 0.0
13/09:30am 22.8 17.9 -7.0 13 12.0 SW 11 17 6 9 1024.4 1023.6 0.0
13/09:00am 21.7 17.6 -6.9 14 11.3 WNW 7 11 4 6 1024.5 1023.7 0.0
13/08:30am 18.3 14.4 -5.0 20 9.3 N 7 11 4 6 1024.6 1023.8 0.0
13/08:00am 14.7 10.8 -4.6 26 7.4 NNE 7 9 4 5 1024.5 1023.7 0.0
13/07:30am 11.3 7.0 -4.8 32 6.0 N 9 11 5 6 1024.2 1023.4 0.0
13/07:00am 8.0 3.7 -4.4 41 4.4 N 9 9 5 5 1023.8 1023.1 0.0
13/06:30am 4.7 0.4 -4.6 51 3.2 N 9 9 5 5 1023.4 1022.7 0.0
13/06:00am 4.4 0.4 -5.4 49 3.3 NNE 7 7 4 4 1023.3 1022.6 0.0
13/05:30am 4.4 0.4 -5.6 48 3.3 N 7 9 4 5 1023.0 1022.3 0.0
13/05:00am 4.4 0.4 -5.9 47 3.4 NNE 7 7 4 4 1023.0 1022.3 0.0
13/04:30am 4.7 0.7 -5.9 46 3.5 N 7 9 4 5 1023.0 1022.3 0.0
13/04:00am 5.2 1.1 -6.6 42 3.9 N 7 9 4 5 1022.9 1022.2 0.0
13/03:30am 5.3 1.2 -8.5 36 4.3 N 6 7 3 4 1023.0 1022.3 0.0
13/03:00am 5.0 0.4 -7.5 40 4.0 N 9 11 5 6 1023.2 1022.5 0.0
13/02:30am 6.1 2.0 -6.8 39 4.3 N 7 9 4 5 1023.5 1022.8 0.0
13/02:00am 7.0 3.0 -5.3 41 4.3 N 7 7 4 4 1023.5 1022.8 0.0
13/01:30am 6.9 2.8 -6.8 37 4.6 N 7 9 4 5 1023.7 1023.0 0.0
13/01:00am 7.1 3.2 -6.2 38 4.5 N 6 9 3 5 1023.7 1023.0 0.0
13/12:30am 7.4 3.0 -6.3 37 4.7 N 9 11 5 6 1024.0 1023.2 0.0
13/12:00am 7.8 3.7 -7.1 34 5.0 N 7 9 4 5 1024.1 1023.3 0.0
 
Date/Time
EST
Temp
°C
App
Temp
°C
Dew
Point
°C
Rel
Hum
%
Delta-T
°C
Wind Press
QNH
hPa
Press
MSL
hPa
Rain since
9am
mm
Dir  Spd
km/h
Gust
km/h
Spd
kts
Gust
kts
12/11:30pm 8.3 5.5 -6.6 34 5.1 CALM 0 0 0 0 1024.3 1023.5 0.0
12/11:00pm 10.1 6.0 -6.7 30 5.8 N 7 7 4 4 1024.3 1023.5 0.0
12/10:30pm 11.4 7.6 -6.0 29 6.3 N 6 7 3 4 1024.5 1023.7 0.0
12/10:00pm 9.7 6.0 -8.8 26 6.1 N 4 7 2 4 1024.4 1023.6 0.0
12/09:30pm 12.2 9.5 -5.7 28 6.6 CALM 0 6 0 3 1024.2 1023.4 0.0
12/09:00pm 13.7 9.3 -5.4 26 7.2 N 9 11 5 6 1024.2 1023.4 0.0
12/08:30pm 13.4 9.3 -6.2 25 7.2 NW 7 9 4 5 1024.3 1023.5 0.0
12/08:00pm 13.1 10.5 -5.4 27 6.9 CALM 0 0 0 0 1024.3 1023.5 0.0
12/07:30pm 13.8 10.9 -8.1 21 7.8 CALM 0 0 0 0 1024.0 1023.2 0.0
12/07:00pm 18.3 14.4 -5.0 20 9.3 SSW 7 9 4 5 1023.7 1023.0 0.0
12/06:30pm 18.2 14.3 -6.5 18 9.5 SSW 6 11 3 6 1023.5 1022.8 0.0
12/06:00pm 21.2 17.5 -4.8 17 10.7 E 6 9 3 5 1023.2 1022.5 0.0

Other formats

Comma delimited format used in spreadsheet applications
http://www.bom.gov.au/fwo/IDQ60801/IDQ60801.94515.axf

JavaScript Object Notation format (JSON) in row-major order
http://www.bom.gov.au/fwo/IDQ60801/IDQ60801.94515.json

Data quality

Most of these data are generated automatically and are frequently updated. Quality checks on data are not normally performed. It is possible for incorrect values to appear. Refer to information at About Latest Weather Observations and please check the disclaimer before using these data.